Time;durP1;ratioP1;P1;durP2;ratioP2;P2;SDS_P1;SDS_P2;PMS_P1;PMS_P2;Temp;Humidity;BMP_temperature;BMP_pressure;BME280_temperature;BME280_humidity;BME280_pressure;Samples;Min_cycle;Max_cycle;Signal;HPM_P1;HPM_P2
2021/04/21 00:02:15;;;;;;;27.77;18.85;;;;;;;5.12;100.00;96253.88;5046335;28;20083;-53
2021/04/21 00:04:43;;;;;;;27.10;18.55;;;;;;;5.16;100.00;96246.63;5040430;28;20068;-52
2021/04/21 00:07:12;;;;;;;28.30;19.27;;;;;;;5.36;100.00;96238.09;5044998;28;20471;-52
2021/04/21 00:09:39;;;;;;;32.08;22.02;;;;;;;5.31;100.00;96234.19;5046180;28;20041;-47
2021/04/21 00:12:08;;;;;;;31.42;19.88;;;;;;;4.92;100.00;96238.88;5045347;28;20057;-55
2021/04/21 00:14:36;;;;;;;33.78;20.38;;;;;;;4.86;100.00;96234.13;5036039;28;20086;-53
2021/04/21 00:17:06;;;;;;;32.67;19.92;;;;;;;4.82;100.00;96236.13;5046490;28;20083;-52
2021/04/21 00:19:36;;;;;;;33.90;22.13;;;;;;;4.85;100.00;96235.91;5042726;28;20072;-50
2021/04/21 00:22:04;;;;;;;31.90;21.23;;;;;;;4.74;100.00;96236.69;5043935;28;20503;-54
2021/04/21 00:24:33;;;;;;;36.58;23.63;;;;;;;4.94;100.00;96236.97;5049284;28;20084;-56
2021/04/21 00:27:02;;;;;;;41.03;25.45;;;;;;;4.95;100.00;96230.78;5045766;28;20063;-54
2021/04/21 00:29:31;;;;;;;40.63;24.55;;;;;;;4.91;100.00;96237.22;5043513;28;20046;-55
2021/04/21 00:31:59;;;;;;;22.05;14.90;;;;;;;4.63;100.00;96234.03;5044988;28;20144;-54
2021/04/21 00:34:29;;;;;;;21.00;13.88;;;;;;;4.17;100.00;96236.59;5044882;28;20053;-57
2021/04/21 00:36:57;;;;;;;20.25;14.20;;;;;;;3.97;100.00;96228.41;5042428;28;20080;-56
2021/04/21 00:39:25;;;;;;;24.92;15.90;;;;;;;4.40;100.00;96225.28;5048773;28;20068;-53
2021/04/21 00:42:01;;;;;;;28.75;18.90;;;;;;;4.32;100.00;96218.97;5042551;28;20068;-57
2021/04/21 00:44:40;;;;;;;31.00;19.58;;;;;;;4.40;100.00;96216.63;5043703;28;20088;-56
2021/04/21 00:47:10;;;;;;;34.75;22.02;;;;;;;4.59;100.00;96219.56;5040864;28;20087;-52
2021/04/21 00:49:47;;;;;;;35.70;22.20;;;;;;;4.50;100.00;96213.22;5045006;28;20068;-54
2021/04/21 00:52:18;;;;;;;35.00;22.02;;;;;;;4.61;100.00;96208.97;5043407;28;20069;-55
2021/04/21 00:54:51;;;;;;;36.53;23.30;;;;;;;4.65;100.00;96213.06;5049172;28;20064;-54
2021/04/21 00:57:22;;;;;;;32.28;20.60;;;;;;;4.15;100.00;96217.59;5026403;28;20427;-51
2021/04/21 00:59:59;;;;;;;33.17;22.30;;;;;;;4.71;100.00;96207.34;5043944;28;20067;-55
2021/04/21 01:02:33;;;;;;;33.63;22.10;;;;;;;4.29;100.00;96213.03;5042921;28;20071;-51
2021/04/21 01:05:07;;;;;;;32.38;20.60;;;;;;;4.22;100.00;96211.81;5045998;28;20064;-53
2021/04/21 01:07:35;;;;;;;28.30;18.17;;;;;;;4.42;100.00;96206.91;5042055;28;20520;-53
2021/04/21 01:10:04;;;;;;;27.05;18.90;;;;;;;4.47;100.00;96207.38;5032523;28;20069;-53
2021/04/21 01:12:31;;;;;;;31.33;20.08;;;;;;;4.23;100.00;96205.66;5035078;28;20069;-53
2021/04/21 01:15:00;;;;;;;31.75;20.63;;;;;;;4.42;100.00;96209.53;5033680;28;20111;-55
2021/04/21 01:17:28;;;;;;;31.15;20.17;;;;;;;4.54;100.00;96203.38;5040142;28;20074;-56
2021/04/21 01:20:09;;;;;;;36.80;23.80;;;;;;;4.70;100.00;96203.91;5042915;28;20420;-51
2021/04/21 01:22:48;;;;;;;41.70;25.55;;;;;;;4.79;100.00;96191.94;5030774;28;20056;-54
2021/04/21 01:25:20;;;;;;;45.08;27.95;;;;;;;4.91;100.00;96205.84;5023991;28;20062;-52
2021/04/21 01:27:55;;;;;;;47.97;28.67;;;;;;;4.98;100.00;96194.00;5050814;28;20076;-56
2021/04/21 01:30:23;;;;;;;42.80;26.92;;;;;;;5.03;100.00;96196.28;5047952;28;20344;-56
2021/04/21 01:32:53;;;;;;;43.13;26.90;;;;;;;5.06;100.00;96201.25;5045345;28;20077;-57
2021/04/21 01:35:22;;;;;;;40.88;25.52;;;;;;;4.59;100.00;96208.28;5047939;28;20499;-57
2021/04/21 01:37:51;;;;;;;35.78;22.67;;;;;;;4.37;100.00;96217.69;5028368;28;20470;-54
2021/04/21 01:40:24;;;;;;;37.45;22.83;;;;;;;4.47;100.00;96210.88;5045186;28;20072;-53
2021/04/21 01:42:55;;;;;;;32.20;21.33;;;;;;;4.64;100.00;96204.34;5031024;28;20073;-55
2021/04/21 01:45:26;;;;;;;38.38;23.10;;;;;;;4.41;100.00;96205.25;5045891;28;20069;-53
2021/04/21 01:47:57;;;;;;;36.97;24.35;;;;;;;4.60;100.00;96208.16;5036633;28;20053;-54
2021/04/21 01:50:25;;;;;;;31.98;21.38;;;;;;;4.60;100.00;96199.50;5024359;28;20452;-53
2021/04/21 01:52:59;;;;;;;29.83;21.13;;;;;;;4.46;100.00;96205.75;5046712;28;20057;-54
2021/04/21 01:55:36;;;;;;;30.17;20.70;;;;;;;4.53;100.00;96197.31;5041267;28;20061;-54
2021/04/21 01:58:12;;;;;;;31.92;21.58;;;;;;;4.55;100.00;96201.63;5042495;28;20498;-50
2021/04/21 02:00:45;;;;;;;35.90;22.15;;;;;;;4.60;100.00;96207.31;5050171;28;20060;-51
2021/04/21 02:03:16;;;;;;;41.80;24.25;;;;;;;4.32;100.00;96198.09;5046541;28;20060;-51
2021/04/21 02:06:04;;;;;;;36.40;23.60;;;;;;;4.43;100.00;96198.94;5027035;28;20065;-51
2021/04/21 02:08:37;;;;;;;34.00;21.65;;;;;;;4.34;100.00;96197.03;5047030;28;20068;-55
2021/04/21 02:11:12;;;;;;;27.60;19.92;;;;;;;4.48;100.00;96196.84;5044085;28;20073;-54
2021/04/21 02:13:57;;;;;;;27.58;20.50;;;;;;;4.43;100.00;96205.97;5044941;28;20073;-59
2021/04/21 02:16:26;;;;;;;25.70;19.52;;;;;;;4.69;100.00;96201.44;5033105;28;20041;-54
2021/04/21 02:19:08;;;;;;;27.38;20.60;;;;;;;4.59;100.00;96200.44;5043265;28;20080;-51
2021/04/21 02:21:43;;;;;;;28.90;20.90;;;;;;;4.18;100.00;96199.94;5022928;28;20110;-54
2021/04/21 02:24:23;;;;;;;25.58;18.38;;;;;;;3.61;100.00;96204.94;5040584;28;20072;-52
2021/04/21 02:26:56;;;;;;;34.33;19.67;;;;;;;3.96;100.00;96200.66;5030814;28;20071;-51
2021/04/21 02:29:32;;;;;;;24.58;19.05;;;;;;;4.11;100.00;96203.09;5043710;28;20497;-49
2021/04/21 02:32:07;;;;;;;23.17;18.73;;;;;;;4.31;100.00;96202.47;5048884;28;20064;-54
2021/04/21 02:34:42;;;;;;;21.88;17.42;;;;;;;3.98;100.00;96213.59;5043688;28;20065;-49
2021/04/21 02:37:12;;;;;;;32.90;19.65;;;;;;;3.55;100.00;96212.25;5046942;28;20070;-50
2021/04/21 02:39:52;;;;;;;24.63;18.65;;;;;;;3.62;100.00;96209.22;5051331;28;20075;-51
2021/04/21 02:42:27;;;;;;;24.35;18.20;;;;;;;4.04;100.00;96205.31;5046205;28;20073;-53
2021/04/21 02:45:00;;;;;;;29.20;19.65;;;;;;;3.84;100.00;96198.91;5047348;28;20064;-50
2021/04/21 02:47:32;;;;;;;26.52;19.08;;;;;;;3.94;100.00;96197.31;5037912;28;20069;-52
2021/04/21 02:50:07;;;;;;;25.15;18.80;;;;;;;3.74;100.00;96203.13;5047657;28;20095;-48
2021/04/21 02:52:46;;;;;;;22.90;18.13;;;;;;;3.68;100.00;96199.19;5043544;28;20064;-50
2021/04/21 02:55:25;;;;;;;28.48;17.98;;;;;;;3.57;100.00;96197.31;5029295;28;20136;-49
2021/04/21 02:58:00;;;;;;;24.90;16.65;;;;;;;3.65;100.00;96202.03;5051793;28;20075;-51
2021/04/21 03:00:33;;;;;;;23.08;18.13;;;;;;;3.54;100.00;96197.56;5045247;28;20475;-51
2021/04/21 03:03:21;;;;;;;26.55;20.23;;;;;;;3.94;100.00;96193.88;5025985;28;20065;-50
2021/04/21 03:05:52;;;;;;;28.88;21.02;;;;;;;3.96;100.00;96192.84;5041880;28;20078;-51
2021/04/21 03:08:22;;;;;;;30.58;20.13;;;;;;;3.74;100.00;96193.53;5047047;28;20079;-50
2021/04/21 03:10:54;;;;;;;34.17;18.85;;;;;;;3.26;100.00;96198.63;5045210;28;20147;-48
2021/04/21 03:13:26;;;;;;;76.50;17.92;;;;;;;3.19;100.00;96199.16;5043152;28;20071;-50
2021/04/21 03:15:58;;;;;;;48.10;16.63;;;;;;;3.43;100.00;96199.25;5039218;28;20065;-58
2021/04/21 03:18:27;;;;;;;23.13;16.48;;;;;;;3.63;100.00;96206.50;5030355;28;20419;-54
2021/04/21 03:20:59;;;;;;;30.13;18.88;;;;;;;3.45;100.00;96199.97;5039940;28;20069;-52
2021/04/21 03:23:29;;;;;;;31.63;20.42;;;;;;;3.38;100.00;96193.53;5031369;28;20080;-55
2021/04/21 03:25:59;;;;;;;29.55;20.38;;;;;;;3.43;100.00;96194.84;5039266;28;20053;-53
2021/04/21 03:28:28;;;;;;;28.13;20.23;;;;;;;3.49;100.00;96191.00;5027592;28;20486;-55
2021/04/21 03:30:59;;;;;;;27.10;19.13;;;;;;;3.39;100.00;96193.41;5034789;28;20736;-50
2021/04/21 03:33:31;;;;;;;28.77;20.02;;;;;;;3.10;100.00;96195.44;5028959;28;20545;-54
2021/04/21 03:35:59;;;;;;;29.75;20.50;;;;;;;2.66;100.00;96194.06;5046156;28;20475;-54
2021/04/21 03:38:27;;;;;;;30.58;20.80;;;;;;;2.60;100.00;96202.28;5026267;28;20071;-51
2021/04/21 03:40:55;;;;;;;31.08;21.67;;;;;;;2.77;100.00;96201.16;5035355;28;20057;-52
2021/04/21 03:43:22;;;;;;;29.50;20.63;;;;;;;2.63;100.00;96194.28;5037592;28;20640;-49
2021/04/21 03:45:50;;;;;;;27.48;20.65;;;;;;;2.98;100.00;96197.09;5047380;28;20083;-54
2021/04/21 03:48:18;;;;;;;25.15;18.67;;;;;;;3.07;100.00;96191.25;5043434;28;20068;-53
2021/04/21 03:50:52;;;;;;;27.27;19.23;;;;;;;3.14;100.00;96186.47;5046026;28;20073;-51
2021/04/21 03:53:21;;;;;;;25.50;18.60;;;;;;;3.02;100.00;96187.28;5041882;28;20071;-53
2021/04/21 03:55:49;;;;;;;24.15;18.02;;;;;;;3.30;100.00;96181.00;5037619;28;20065;-55
2021/04/21 03:58:18;;;;;;;23.80;18.48;;;;;;;3.13;100.00;96187.38;5035586;28;20084;-49
2021/04/21 04:00:51;;;;;;;23.10;18.17;;;;;;;3.47;100.00;96180.66;5036866;28;20501;-52
2021/04/21 04:03:23;;;;;;;24.42;17.33;;;;;;;3.47;100.00;96180.66;5027541;28;20530;-55
2021/04/21 04:05:56;;;;;;;24.98;19.30;;;;;;;3.38;100.00;96185.72;5040691;28;20068;-53
2021/04/21 04:08:26;;;;;;;24.80;18.30;;;;;;;3.45;100.00;96179.13;5040977;28;20479;-53
2021/04/21 04:10:55;;;;;;;25.65;19.02;;;;;;;3.53;100.00;96182.84;5029055;28;20065;-53
2021/04/21 04:13:24;;;;;;;29.88;18.80;;;;;;;3.61;100.00;96192.72;5045675;28;20079;-55
2021/04/21 04:15:52;;;;;;;28.50;17.58;;;;;;;3.28;100.00;96193.34;5046714;28;20076;-54
2021/04/21 04:18:22;;;;;;;27.83;18.55;;;;;;;3.06;100.00;96193.97;5044881;28;20558;-51
2021/04/21 04:20:51;;;;;;;29.08;18.48;;;;;;;3.00;100.00;96197.00;5045202;28;20053;-53
2021/04/21 04:23:20;;;;;;;26.88;19.58;;;;;;;3.01;100.00;96201.28;5044537;28;20511;-52
2021/04/21 04:25:50;;;;;;;27.52;18.25;;;;;;;3.20;100.00;96200.81;5043750;28;20071;-53
2021/04/21 04:28:18;;;;;;;25.07;18.17;;;;;;;3.14;100.00;96204.72;5041513;28;20069;-55
2021/04/21 04:30:46;;;;;;;21.35;15.80;;;;;;;3.29;100.00;96205.41;5043779;28;20087;-54
2021/04/21 04:33:16;;;;;;;21.15;16.45;;;;;;;3.25;100.00;96210.00;5044903;28;20164;-53
2021/04/21 04:35:45;;;;;;;21.10;16.45;;;;;;;3.54;100.00;96210.59;5041172;28;20076;-53
2021/04/21 04:38:12;;;;;;;21.50;16.75;;;;;;;3.46;100.00;96210.28;5043168;28;20068;-49
2021/04/21 04:40:40;;;;;;;22.02;16.33;;;;;;;3.48;100.00;96212.81;5036137;28;20041;-51
2021/04/21 04:43:09;;;;;;;23.40;17.67;;;;;;;3.48;100.00;96210.19;5042456;28;20073;-52
2021/04/21 04:45:39;;;;;;;24.77;17.27;;;;;;;3.32;100.00;96219.06;5043059;28;20073;-50
2021/04/21 04:48:30;;;;;;;20.58;15.68;;;;;;;3.54;100.00;96218.41;5028345;28;21757;-52
2021/04/21 04:51:01;;;;;;;24.08;17.45;;;;;;;3.78;100.00;96217.59;5037365;28;20083;-50
2021/04/21 04:53:30;;;;;;;22.67;16.23;;;;;;;4.00;100.00;96217.75;5041594;28;20068;-55
2021/04/21 04:55:58;;;;;;;23.60;16.42;;;;;;;4.86;100.00;96213.22;5031906;28;20083;-50
2021/04/21 04:58:28;;;;;;;22.10;16.45;;;;;;;6.16;100.00;96206.53;5036426;28;20116;-49
2021/04/21 05:01:03;;;;;;;21.13;16.13;;;;;;;6.85;100.00;96210.53;5041321;28;20076;-49
2021/04/21 05:03:35;;;;;;;20.23;15.43;;;;;;;7.21;100.00;96197.91;5043852;28;20526;-54
2021/04/21 05:06:04;;;;;;;20.83;15.55;;;;;;;8.01;100.00;96203.16;5039249;28;20075;-55
2021/04/21 05:08:38;;;;;;;19.77;14.20;;;;;;;8.51;100.00;96205.75;5041454;28;20075;-52
2021/04/21 05:11:09;;;;;;;19.17;14.30;;;;;;;8.56;100.00;96207.97;5039396;28;20069;-53
2021/04/21 05:13:40;;;;;;;15.43;12.98;;;;;;;9.05;100.00;96211.41;5043769;28;20065;-50
2021/04/21 05:16:43;;;;;;;15.90;12.80;;;;;;;9.18;100.00;96216.34;5040816;28;20073;-48
2021/04/21 05:19:35;;;;;;;15.90;12.88;;;;;;;9.98;92.63;96214.94;5039005;28;20103;-48
2021/04/21 05:22:47;;;;;;;15.70;12.73;;;;;;;9.50;96.97;96205.47;5043324;28;20484;-49
2021/04/21 05:25:44;;;;;;;18.10;13.40;;;;;;;9.86;93.82;96208.22;4993199;28;20073;-51
2021/04/21 05:28:53;;;;;;;19.02;14.30;;;;;;;8.37;100.00;96221.91;5028836;28;20084;-49
2021/04/21 05:31:46;;;;;;;20.50;13.63;;;;;;;8.28;100.00;96223.53;5000641;28;20112;-52
2021/04/21 05:34:53;;;;;;;22.60;16.60;;;;;;;7.92;100.00;96224.16;5041792;28;20069;-47
2021/04/21 05:38:02;;;;;;;18.80;15.23;;;;;;;7.38;100.00;96226.16;5043417;28;20745;-51
2021/04/21 05:40:52;;;;;;;17.75;13.82;;;;;;;7.65;100.00;96230.84;5024338;28;20483;-50
2021/04/21 05:43:58;;;;;;;17.67;12.98;;;;;;;7.85;100.00;96231.75;5039524;28;20074;-50
2021/04/21 05:46:58;;;;;;;18.98;14.35;;;;;;;8.18;100.00;96230.56;5014063;28;20088;-49
2021/04/21 05:50:01;;;;;;;19.83;14.32;;;;;;;8.35;100.00;96233.50;5041286;28;20069;-50
2021/04/21 05:52:47;;;;;;;20.98;15.77;;;;;;;8.49;100.00;96230.50;5031204;28;20482;-50
2021/04/21 05:55:51;;;;;;;19.90;15.02;;;;;;;8.29;100.00;96234.88;5042232;28;20080;-50
2021/04/21 05:58:44;;;;;;;19.77;14.52;;;;;;;8.12;100.00;96235.53;5039379;28;20076;-53
2021/04/21 06:01:30;;;;;;;24.92;13.55;;;;;;;8.16;100.00;96244.81;5039298;28;20077;-53
2021/04/21 06:03:58;;;;;;;20.92;14.07;;;;;;;8.03;100.00;96238.00;5034250;28;20073;-51
2021/04/21 06:06:27;;;;;;;19.15;14.02;;;;;;;7.76;100.00;96237.78;5044402;28;20080;-50
2021/04/21 06:08:56;;;;;;;19.50;14.40;;;;;;;7.87;100.00;96234.22;5040451;28;20073;-52
2021/04/21 06:11:25;;;;;;;19.40;14.35;;;;;;;8.11;100.00;96241.75;5039640;28;20099;-48
2021/04/21 06:13:55;;;;;;;21.40;14.30;;;;;;;7.89;100.00;96245.44;5037104;28;20436;-54
2021/04/21 06:16:25;;;;;;;23.77;14.18;;;;;;;8.07;100.00;96249.91;5038226;28;21055;-49
2021/04/21 06:18:56;;;;;;;23.67;14.57;;;;;;;8.68;100.00;96241.03;5048811;28;20493;-54
2021/04/21 06:21:24;;;;;;;20.35;14.65;;;;;;;8.45;100.00;96239.63;5046341;28;21359;-54
2021/04/21 06:23:53;;;;;;;19.42;15.05;;;;;;;8.64;100.00;96241.47;5044679;28;20978;-55
2021/04/21 06:26:25;;;;;;;19.98;14.98;;;;;;;9.36;100.00;96237.47;5048619;28;20733;-55
2021/04/21 06:29:02;;;;;;;23.27;14.98;;;;;;;9.38;100.00;96246.06;5026589;28;20063;-52
2021/04/21 06:31:34;;;;;;;24.77;14.73;;;;;;;9.21;100.00;96245.81;5032467;28;20080;-55
2021/04/21 06:34:03;;;;;;;18.55;14.13;;;;;;;9.55;100.00;96247.97;5037291;28;20075;-54
2021/04/21 06:36:39;;;;;;;21.70;15.15;;;;;;;9.26;100.00;96246.25;5039000;28;20150;-53
2021/04/21 06:39:07;;;;;;;20.30;15.30;;;;;;;9.56;100.00;96246.16;5016047;28;20061;-54
2021/04/21 06:42:01;;;;;;;20.90;14.77;;;;;;;10.03;100.00;96240.84;5044003;28;20064;-51
2021/04/21 06:44:42;;;;;;;18.42;14.55;;;;;;;10.07;100.00;96244.84;5036328;28;20733;-53
2021/04/21 06:47:09;;;;;;;20.33;15.20;;;;;;;9.92;100.00;96247.13;5037550;28;20507;-54
2021/04/21 06:49:37;;;;;;;20.98;13.95;;;;;;;10.14;100.00;96240.63;5034429;28;20072;-51
2021/04/21 06:52:13;;;;;;;20.83;14.23;;;;;;;10.03;100.00;96243.47;5037396;28;20091;-53
2021/04/21 06:54:42;;;;;;;18.95;13.98;;;;;;;10.28;100.00;96242.81;5033342;28;20496;-53
2021/04/21 06:57:10;;;;;;;22.10;14.05;;;;;;;10.17;100.00;96237.72;5027374;28;20109;-52
2021/04/21 06:59:39;;;;;;;19.50;13.50;;;;;;;11.01;100.00;96247.13;5039584;28;20037;-56
2021/04/21 07:02:07;;;;;;;19.27;13.02;;;;;;;10.89;100.00;96246.53;5034758;28;20075;-52
2021/04/21 07:04:34;;;;;;;19.38;13.77;;;;;;;11.31;100.00;96241.41;5029104;28;20061;-55
2021/04/21 07:07:03;;;;;;;17.80;13.27;;;;;;;11.68;100.00;96242.16;5035918;28;20077;-54
2021/04/21 07:09:31;;;;;;;15.48;12.55;;;;;;;11.36;100.00;96248.88;5044144;28;20128;-54
2021/04/21 07:12:00;;;;;;;15.30;12.25;;;;;;;10.90;100.00;96251.66;5030144;28;20065;-53
2021/04/21 07:14:30;;;;;;;15.30;12.15;;;;;;;12.09;100.00;96244.03;5032970;28;20068;-54
2021/04/21 07:16:59;;;;;;;15.47;12.10;;;;;;;11.89;100.00;96245.25;5035989;28;20072;-54
2021/04/21 07:19:27;;;;;;;23.52;11.65;;;;;;;11.65;100.00;96248.56;5045653;28;20510;-55
2021/04/21 07:21:55;;;;;;;15.23;11.38;;;;;;;12.06;100.00;96244.34;5045497;28;20076;-51
2021/04/21 07:24:28;;;;;;;14.05;11.48;;;;;;;11.84;100.00;96258.13;5041390;28;20079;-54
2021/04/21 07:26:56;;;;;;;16.80;12.13;;;;;;;12.11;100.00;96255.28;5049038;28;20057;-53
2021/04/21 07:29:25;;;;;;;13.75;11.02;;;;;;;12.57;100.00;96252.28;5039398;28;20452;-56
2021/04/21 07:31:54;;;;;;;17.75;11.48;;;;;;;12.14;100.00;96248.81;5037112;28;20071;-49
2021/04/21 07:34:30;;;;;;;15.57;11.68;;;;;;;12.19;100.00;96249.19;5028661;28;20075;-53
2021/04/21 07:36:58;;;;;;;16.08;12.07;;;;;;;12.25;100.00;96248.56;5034843;28;20076;-53
2021/04/21 07:39:33;;;;;;;17.40;12.85;;;;;;;12.57;100.00;96250.44;5033072;28;20541;-53
2021/04/21 07:42:01;;;;;;;17.70;12.65;;;;;;;13.06;100.00;96250.50;5052126;28;20510;-54
2021/04/21 07:44:31;;;;;;;15.23;11.55;;;;;;;13.42;100.00;96244.06;5039170;28;20114;-55
2021/04/21 07:47:13;;;;;;;16.58;12.32;;;;;;;12.59;100.00;96251.13;5035104;28;20072;-53
2021/04/21 07:49:45;;;;;;;13.95;11.77;;;;;;;13.59;100.00;96244.84;5032717;28;20110;-54
2021/04/21 07:52:22;;;;;;;18.23;11.52;;;;;;;13.93;100.00;96242.78;5024472;28;20083;-53
2021/04/21 07:54:50;;;;;;;15.07;11.05;;;;;;;13.35;100.00;96253.66;5046681;28;20116;-53
2021/04/21 07:57:18;;;;;;;14.27;11.18;;;;;;;13.50;100.00;96250.19;5042973;28;20057;-55
2021/04/21 07:59:47;;;;;;;18.33;12.40;;;;;;;13.83;99.53;96249.28;5045779;28;20533;-53
2021/04/21 08:02:17;;;;;;;16.83;12.10;;;;;;;14.41;97.79;96250.72;5043258;28;20064;-53
2021/04/21 08:04:47;;;;;;;14.55;11.50;;;;;;;14.43;98.66;96256.69;5044351;28;20554;-55
2021/04/21 08:07:29;;;;;;;14.85;10.93;;;;;;;14.68;88.75;96250.25;5047299;28;20428;-55
2021/04/21 08:09:58;;;;;;;14.82;11.15;;;;;;;14.55;92.39;96254.50;5053634;28;20077;-54
2021/04/21 08:12:27;;;;;;;15.68;9.98;;;;;;;14.14;92.62;96255.50;5046660;28;20077;-53
2021/04/21 08:14:59;;;;;;;12.85;10.48;;;;;;;15.19;87.10;96250.56;5036400;28;20064;-54
2021/04/21 08:17:26;;;;;;;13.98;10.55;;;;;;;15.70;80.20;96249.16;5026691;28;20507;-54
2021/04/21 08:19:56;;;;;;;17.33;10.88;;;;;;;15.13;81.64;96255.75;5025835;28;20069;-54
2021/04/21 08:22:25;;;;;;;13.52;10.25;;;;;;;15.00;83.25;96259.00;5031316;28;20069;-54
2021/04/21 08:24:53;;;;;;;14.23;10.80;;;;;;;15.52;79.52;96255.63;5017917;28;20079;-54
2021/04/21 08:27:21;;;;;;;13.82;10.55;;;;;;;15.60;81.49;96254.72;5044150;28;20114;-53
2021/04/21 08:29:50;;;;;;;15.40;10.57;;;;;;;14.63;88.50;96257.13;5043687;28;20072;-54
2021/04/21 08:32:22;;;;;;;15.60;10.90;;;;;;;14.77;82.38;96252.88;5012440;28;20072;-55
2021/04/21 08:34:50;;;;;;;14.10;10.57;;;;;;;14.78;86.59;96257.19;5026208;28;20065;-56
2021/04/21 08:37:20;;;;;;;13.27;10.38;;;;;;;14.53;89.74;96256.50;5037975;28;20057;-54
2021/04/21 08:39:47;;;;;;;13.73;11.10;;;;;;;14.83;88.75;96255.66;5036918;28;20190;-56
2021/04/21 08:42:15;;;;;;;15.80;11.68;;;;;;;15.24;82.70;96255.34;5037231;28;20495;-52
2021/04/21 08:44:43;;;;;;;13.40;10.27;;;;;;;15.57;87.86;96253.22;5024401;28;20061;-50
2021/04/21 08:47:16;;;;;;;15.48;11.25;;;;;;;15.33;87.68;96248.97;5037768;28;20139;-55
2021/04/21 08:49:45;;;;;;;16.65;10.90;;;;;;;15.79;81.44;96250.72;5038695;28;20061;-50
2021/04/21 08:52:16;;;;;;;16.20;11.45;;;;;;;16.02;76.79;96246.13;5042956;28;20083;-55
2021/04/21 08:54:47;;;;;;;13.63;11.52;;;;;;;15.77;80.62;96250.09;5042973;28;20084;-48
2021/04/21 08:57:15;;;;;;;14.55;11.52;;;;;;;15.57;84.60;96258.53;5045388;28;20069;-55
2021/04/21 08:59:43;;;;;;;14.00;12.10;;;;;;;16.16;76.96;96252.47;5042508;28;20462;-54
2021/04/21 09:02:12;;;;;;;24.38;14.95;;;;;;;16.44;65.62;96252.59;5042970;28;20057;-49
2021/04/21 09:04:40;;;;;;;18.77;12.70;;;;;;;16.56;75.30;96253.78;5045205;28;20064;-50
2021/04/21 09:07:08;;;;;;;20.13;14.77;;;;;;;16.58;64.57;96254.41;5043253;28;20080;-57
2021/04/21 09:09:35;;;;;;;18.92;14.18;;;;;;;16.83;65.18;96254.13;5044450;28;20083;-54
2021/04/21 09:12:05;;;;;;;20.42;15.55;;;;;;;16.85;61.49;96252.09;5043531;28;20060;-54
2021/04/21 09:14:33;;;;;;;22.02;16.20;;;;;;;16.81;56.89;96250.81;5043329;28;20074;-51
2021/04/21 09:17:00;;;;;;;20.08;15.00;;;;;;;15.77;61.85;96250.91;5041435;28;20076;-55
2021/04/21 09:19:28;;;;;;;21.00;16.20;;;;;;;15.98;65.18;96249.34;5044844;28;20073;-50
2021/04/21 09:22:08;;;;;;;19.85;14.93;;;;;;;17.00;60.69;96250.22;5039967;28;20057;-55
2021/04/21 09:24:37;;;;;;;21.48;16.42;;;;;;;16.70;63.62;96252.09;5044977;28;20083;-49
2021/04/21 09:27:26;;;;;;;18.83;15.70;;;;;;;16.94;58.50;96247.47;5028253;28;20065;-53
2021/04/21 09:30:09;;;;;;;20.00;15.70;;;;;;;17.00;61.47;96242.22;5039864;28;20061;-51
2021/04/21 09:32:44;;;;;;;20.02;15.40;;;;;;;16.32;62.35;96243.47;5027296;28;20064;-51
2021/04/21 09:35:16;;;;;;;21.30;16.35;;;;;;;17.11;58.15;96246.22;5030312;28;20065;-52
2021/04/21 09:37:43;;;;;;;19.92;15.52;;;;;;;16.93;61.97;96245.81;5042874;28;20076;-52
2021/04/21 09:40:12;;;;;;;19.92;14.70;;;;;;;17.39;56.28;96243.59;5045768;28;20073;-53
2021/04/21 09:42:40;;;;;;;20.63;15.80;;;;;;;17.86;52.83;96243.94;5030211;28;20077;-53
2021/04/21 09:45:08;;;;;;;21.40;14.55;;;;;;;17.58;54.28;96239.41;5040485;28;20557;-55
2021/04/21 09:47:36;;;;;;;83.25;56.67;;;;;;;17.67;52.29;96235.59;5031020;28;20324;-55
2021/04/21 09:50:04;;;;;;;56.00;36.40;;;;;;;17.97;49.62;96238.91;5037832;28;20076;-55
2021/04/21 09:52:32;;;;;;;23.17;16.80;;;;;;;18.05;49.10;96240.56;5040008;28;20076;-53
2021/04/21 09:55:00;;;;;;;18.60;15.32;;;;;;;18.01;50.15;96236.66;5040758;28;20087;-51
2021/04/21 09:57:31;;;;;;;19.52;15.45;;;;;;;17.94;51.77;96236.63;5035754;28;20652;-50
2021/04/21 10:00:00;;;;;;;;;;;;;;;17.78;51.64;96236.91;5038793;28;20064;-52
2021/04/21 10:02:34;;;;;;;21.83;16.05;;;;;;;18.04;48.04;96241.59;5043905;28;20429;-55
2021/04/21 10:05:24;;;;;;;19.45;15.18;;;;;;;18.94;45.85;96234.38;5037004;28;20061;-54
2021/04/21 10:08:11;;;;;;;19.92;15.38;;;;;;;18.67;49.79;96233.47;5039882;28;20069;-54
2021/04/21 10:10:40;;;;;;;19.92;15.52;;;;;;;18.85;49.95;96232.91;5036034;28;20072;-53
2021/04/21 10:13:16;;;;;;;19.52;15.23;;;;;;;18.81;47.72;96232.50;5037477;28;20085;-55
2021/04/21 10:16:01;;;;;;;17.75;14.40;;;;;;;18.39;44.91;96225.56;5040469;28;20092;-52
2021/04/21 10:18:29;;;;;;;18.38;14.95;;;;;;;19.12;44.63;96226.59;5040106;28;20087;-55
2021/04/21 10:20:56;;;;;;;19.65;15.30;;;;;;;18.18;44.97;96227.31;5046048;28;20057;-52
2021/04/21 10:23:24;;;;;;;20.25;15.93;;;;;;;18.47;46.67;96225.38;5042813;28;20081;-55
2021/04/21 10:25:51;;;;;;;18.77;16.10;;;;;;;17.26;46.89;96227.47;5042003;28;20069;-55
2021/04/21 10:28:23;;;;;;;19.00;15.48;;;;;;;17.38;48.22;96228.63;5044238;28;20573;-52
2021/04/21 10:30:50;;;;;;;21.58;16.75;;;;;;;17.93;47.58;96223.50;5050331;28;20073;-49
2021/04/21 10:33:20;;;;;;;19.48;15.90;;;;;;;18.41;46.21;96220.81;5045579;28;20096;-53
2021/04/21 10:35:48;;;;;;;21.40;16.45;;;;;;;18.65;45.29;96216.78;5046773;28;20079;-55
2021/04/21 10:38:16;;;;;;;24.15;15.82;;;;;;;18.88;45.22;96217.31;5046905;28;20088;-55
2021/04/21 10:40:43;;;;;;;20.30;15.23;;;;;;;18.84;42.64;96217.91;5044409;28;20079;-53
2021/04/21 10:43:11;;;;;;;19.98;16.10;;;;;;;18.33;43.69;96210.31;5045973;28;20076;-54
2021/04/21 10:45:48;;;;;;;19.80;16.38;;;;;;;19.37;40.77;96215.28;5047877;28;20073;-52
2021/04/21 10:48:41;;;;;;;22.40;17.70;;;;;;;18.72;42.67;96205.16;5046373;28;20076;-53
2021/04/21 10:51:31;;;;;;;19.48;15.68;;;;;;;19.00;41.37;96209.53;5042990;28;20448;-52
2021/04/21 10:54:00;;;;;;;17.88;14.82;;;;;;;20.29;40.62;96194.78;5038445;28;20076;-55
2021/04/21 10:56:28;;;;;;;20.52;15.05;;;;;;;20.35;39.58;96192.06;5048062;28;20048;-54
2021/04/21 10:58:57;;;;;;;17.25;14.07;;;;;;;19.78;39.82;96196.34;5046278;28;20064;-56
2021/04/21 11:01:29;;;;;;;19.15;15.40;;;;;;;18.86;40.21;96197.19;5029280;28;21593;-51
2021/04/21 11:03:58;;;;;;;16.98;14.30;;;;;;;20.09;40.23;96192.97;5041210;28;20101;-55
2021/04/21 11:06:47;;;;;;;16.60;14.13;;;;;;;19.54;40.35;96191.63;5033816;28;20073;-56
2021/04/21 11:09:19;;;;;;;17.15;14.57;;;;;;;19.77;39.12;96189.38;5038897;28;20064;-55
2021/04/21 11:11:49;;;;;;;18.30;14.90;;;;;;;19.61;39.35;96184.41;5039017;28;20079;-52
2021/04/21 11:14:16;;;;;;;;;;;;;;;19.72;39.07;96189.19;5043714;28;20064;-53
2021/04/21 11:16:45;;;;;;;17.23;14.00;;;;;;;20.68;39.47;96168.84;5026496;28;20433;-52
2021/04/21 11:19:30;;;;;;;16.27;13.30;;;;;;;21.30;37.41;96173.38;5047431;28;20107;-53
2021/04/21 11:22:20;;;;;;;22.27;15.43;;;;;;;21.08;37.12;96178.28;5044410;28;20077;-53
2021/04/21 11:25:22;;;;;;;20.20;15.83;;;;;;;19.96;37.07;96176.13;5042708;28;20637;-53
2021/04/21 11:28:07;;;;;;;22.45;14.77;;;;;;;19.37;37.96;96176.03;5036539;28;20558;-54
2021/04/21 11:30:53;;;;;;;19.83;14.63;;;;;;;19.58;38.15;96169.63;5046594;28;20083;-49
2021/04/21 11:33:57;;;;;;;20.35;16.30;;;;;;;19.82;38.48;96162.81;5040294;28;20491;-52
2021/04/21 11:36:53;;;;;;;17.85;14.30;;;;;;;19.72;37.86;96165.09;5039531;28;20519;-53
2021/04/21 11:39:56;;;;;;;18.63;15.77;;;;;;;20.43;37.02;96163.41;5025816;28;20091;-51
2021/04/21 11:42:47;;;;;;;20.25;17.08;;;;;;;20.95;36.97;96166.81;5028196;28;20396;-56
2021/04/21 11:45:36;;;;;;;18.67;15.82;;;;;;;21.03;38.26;96156.69;5043790;28;20072;-53
2021/04/21 11:48:19;;;;;;;17.75;15.38;;;;;;;21.17;39.83;96159.25;5042992;28;20132;-49